Davenport, NE (68335)

1:58 AM CDT on September 02, 2014 (GMT -0500)
Hebron Municipal | Change Station
CLOSE
Current Station
Airport
Location: Hebron,
Elevation: 1467 ft
Nearby Weather Stations

Elev 1467 ft 40.15 °N, 97.59 °W | Updated 23 minutes ago

Clear
Clear
62 °F
Feels Like 62 °F
N
0
Wind Variable Wind from North

Today
High -- | Low -- °F
--% Chance of Precip.
Yesterday
High -- | Low -- °F
Precip. -- in
6:59 AM 8:01 PM
Waxing Crescent, 48% visible
Pressure 29.98 in
Visibility 10.0 miles
Clouds Clear
Dew Point 55 °F
Humidity 80%
Rainfall 0.00 in
Snow Depth Not available.
UV 0 out of 12
Pollen 8.20 out of 12
Air Quality Not available.
Flu Activity Not available.
METAR KHJH 020635Z AUTO 00000KT 10SM CLR 16/13 A2998 RMK AO2 T01640129

More Conditions Fewer Conditions

Pressure 29.98 in
Visibility 10.0 miles
Clouds Clear
Dew Point 55 °F
Humidity 80%
Rainfall 0.00 in
Snow Depth Not available.
UV 0 out of 12
Pollen 8.20 out of 12
Air Quality Not available.
Flu Activity Not available.
METAR KHJH 020635Z AUTO 00000KT 10SM CLR 16/13 A2998 RMK AO2 T01640129

More Conditions Fewer Conditions

10-Day Weather Forecast

Almanac

Astronomy

Sep. 02, 2014 Rise Set
Actual Time 6:59 AM CDT 8:01 PM CDT
Civil Twilight 6:31 AM CDT 8:29 PM CDT
Nautical Twilight 5:58 AM CDT 9:02 PM CDT
Astronomical Twilight 5:23 AM CDT 9:36 PM CDT
Moon 2:46 PM CDT 12:04 AM CDT
Length of Visible Light 13h 57m
Length of Day
13h 01m
Tomorrow will be 2m 34s shorter.
Waxing Crescent, 48% of the Moon is Illuminated
Today
Waxing Crescent
Sep 2
First Quarter
Sep 8
Full
Sep 15
Last Quarter
Sep 24
New

Today's Extremes

State Highs State Lows

Community

WunderPhotos

Upload Photos

1,749,589 photos uploaded!

WunderBlogs® & News

Nearby

Snow Depth

Station Depth Elevation
No new snow has been reported.

Earthquake Activity

City Distance Mag. Time & Date
No recent earthquake activity has been reported nearby.
Minimum magnitude displayed is 2.5.

Coastal Water Temperatures

Place Temperature
No Stations Reporting

Nearby Weather Stations